createdAt,value
2023-04-27T00:01:22.120Z,83.86
2023-04-27T00:03:49.287Z,83.80
2023-04-27T00:06:16.885Z,83.59
2023-04-27T00:08:43.816Z,83.65
2023-04-27T00:11:10.899Z,83.47
2023-04-27T00:13:37.950Z,83.44
2023-04-27T00:16:05.240Z,83.61
2023-04-27T00:18:32.471Z,83.42
2023-04-27T00:21:00.134Z,83.44
2023-04-27T00:23:27.989Z,83.28
2023-04-27T00:25:54.909Z,83.23
2023-04-27T00:28:21.812Z,83.17
2023-04-27T00:30:49.057Z,83.08
2023-04-27T00:33:17.110Z,83.14
2023-04-27T00:35:44.040Z,83.07
2023-04-27T00:38:11.726Z,82.75
2023-04-27T00:40:39.277Z,82.84
2023-04-27T00:43:06.368Z,82.74
2023-04-27T00:45:37.897Z,82.68
2023-04-27T00:48:05.101Z,82.60
2023-04-27T00:50:32.103Z,82.49
2023-04-27T00:52:59.018Z,82.45
2023-04-27T00:55:26.021Z,82.32
2023-04-27T00:57:53.003Z,82.28
2023-04-27T01:00:20.141Z,82.12
2023-04-27T01:02:48.172Z,82.25
2023-04-27T01:05:17.896Z,81.97
2023-04-27T01:07:46.595Z,81.96
2023-04-27T01:10:13.557Z,81.88
2023-04-27T01:12:42.225Z,82.07
2023-04-27T01:15:10.429Z,82.21
2023-04-27T01:17:37.526Z,82.25
2023-04-27T01:20:07.565Z,82.46
2023-04-27T01:22:34.811Z,82.34
2023-04-27T01:25:01.861Z,82.51
2023-04-27T01:27:31.303Z,82.47
2023-04-27T01:29:58.299Z,82.58
2023-04-27T01:32:26.139Z,82.84
2023-04-27T01:34:53.155Z,82.97
2023-04-27T01:37:20.101Z,82.78
2023-04-27T01:39:47.462Z,82.81
2023-04-27T01:42:14.375Z,82.51
2023-04-27T01:44:41.338Z,82.74
2023-04-27T01:47:09.475Z,82.66
2023-04-27T01:49:36.539Z,82.74
2023-04-27T01:52:03.784Z,82.71
2023-04-27T01:54:30.759Z,82.66
2023-04-27T01:56:58.884Z,82.65
2023-04-27T01:59:25.881Z,82.87
2023-04-27T02:01:59.488Z,82.73
2023-04-27T02:04:26.609Z,82.74
2023-04-27T02:06:53.742Z,82.91
2023-04-27T02:09:20.692Z,82.92
2023-04-27T02:11:47.661Z,82.86
2023-04-27T02:14:14.724Z,82.94
2023-04-27T02:16:41.714Z,82.99
2023-04-27T02:19:08.692Z,83.27
2023-04-27T02:21:36.418Z,83.17
2023-04-27T02:24:03.553Z,82.98
2023-04-27T02:26:31.009Z,82.99
2023-04-27T02:28:58.175Z,83.02
2023-04-27T02:31:25.793Z,83.04
2023-04-27T02:33:53.098Z,83.02
2023-04-27T02:36:20.054Z,83.06
2023-04-27T02:38:47.319Z,83.08
2023-04-27T02:41:14.236Z,83.09
2023-04-27T02:43:41.445Z,83.20
2023-04-27T02:46:08.720Z,83.41
2023-04-27T02:48:35.791Z,83.12
2023-04-27T02:51:04.898Z,83.18
2023-04-27T02:53:31.823Z,83.19
2023-04-27T02:55:59.402Z,83.31
2023-04-27T02:58:26.821Z,83.28
2023-04-27T03:00:55.859Z,83.48
2023-04-27T03:03:23.734Z,83.41
2023-04-27T03:05:51.141Z,83.48
2023-04-27T03:08:18.901Z,83.51
2023-04-27T03:10:45.851Z,83.55
2023-04-27T03:13:14.150Z,83.67
2023-04-27T03:15:43.277Z,83.73
2023-04-27T03:18:10.292Z,83.64
2023-04-27T03:20:37.295Z,83.88
2023-04-27T03:23:04.359Z,83.74
2023-04-27T03:25:31.407Z,83.90
2023-04-27T03:27:58.432Z,83.95
2023-04-27T03:30:25.374Z,83.84
2023-04-27T03:32:52.344Z,83.96
2023-04-27T03:35:19.692Z,83.89
2023-04-27T03:37:47.054Z,83.40
2023-04-27T03:40:14.628Z,83.44
2023-04-27T03:42:41.631Z,83.54
2023-04-27T03:45:09.603Z,83.65
2023-04-27T03:47:36.593Z,83.66
2023-04-27T03:50:04.450Z,83.62
2023-04-27T03:52:32.835Z,83.67
2023-04-27T03:55:01.314Z,83.79
2023-04-27T03:57:28.422Z,83.85
2023-04-27T03:59:55.728Z,83.97
2023-04-27T04:02:23.629Z,84.16
2023-04-27T04:04:51.117Z,84.01
2023-04-27T04:07:18.270Z,84.08
2023-04-27T04:09:45.466Z,84.15
2023-04-27T04:12:12.489Z,83.97
2023-04-27T04:14:40.188Z,83.97
2023-04-27T04:17:09.733Z,84.02
2023-04-27T04:19:36.722Z,84.10
2023-04-27T04:22:03.649Z,84.13
2023-04-27T04:24:30.904Z,84.23
2023-04-27T04:26:58.772Z,83.98
2023-04-27T04:29:25.896Z,84.34
2023-04-27T04:31:52.955Z,84.47
2023-04-27T04:34:20.214Z,84.39
2023-04-27T04:36:47.337Z,84.35
2023-04-27T04:39:15.121Z,84.38
2023-04-27T04:41:43.688Z,84.31
2023-04-27T04:44:11.749Z,84.15
2023-04-27T04:46:39.068Z,83.99
2023-04-27T04:49:06.672Z,83.70
2023-04-27T04:51:33.886Z,83.60
2023-04-27T04:54:01.973Z,83.57
2023-04-27T04:56:29.344Z,83.64
2023-04-27T04:58:56.613Z,83.50
2023-04-27T05:01:24.928Z,83.32
2023-04-27T05:03:52.033Z,83.21
2023-04-27T05:06:19.248Z,83.10
2023-04-27T05:08:46.260Z,83.08
2023-04-27T05:11:13.462Z,82.95
2023-04-27T05:13:40.493Z,82.94
2023-04-27T05:16:07.889Z,82.72
2023-04-27T05:18:34.989Z,82.54
2023-04-27T05:21:02.359Z,82.48
2023-04-27T05:23:29.420Z,82.35
2023-04-27T05:25:56.390Z,82.33
2023-04-27T05:28:23.489Z,82.34
2023-04-27T05:30:50.848Z,82.17
2023-04-27T05:33:17.923Z,82.25
2023-04-27T05:35:44.919Z,82.33
2023-04-27T05:38:15.206Z,82.44
2023-04-27T05:40:42.166Z,82.29
2023-04-27T05:43:09.076Z,82.17
2023-04-27T05:45:39.908Z,82.01
2023-04-27T05:48:06.999Z,82.23
2023-04-27T05:50:34.019Z,82.14
2023-04-27T05:53:01.159Z,82.36
2023-04-27T05:55:28.234Z,82.35
2023-04-27T05:58:07.107Z,82.30
2023-04-27T06:00:36.707Z,82.17
2023-04-27T06:03:04.026Z,82.08
2023-04-27T06:05:31.743Z,82.10
2023-04-27T06:07:58.988Z,82.15
2023-04-27T06:10:26.272Z,82.22
2023-04-27T06:12:53.323Z,82.15
2023-04-27T06:15:21.013Z,82.19
2023-04-27T06:17:48.068Z,82.27
2023-04-27T06:20:15.919Z,82.19
2023-04-27T06:22:43.726Z,82.08
2023-04-27T06:25:10.670Z,82.13
2023-04-27T06:27:37.740Z,82.04
2023-04-27T06:30:05.300Z,82.26
2023-04-27T06:32:32.313Z,82.48
2023-04-27T06:34:59.462Z,82.68
2023-04-27T06:37:26.480Z,82.53
2023-04-27T06:39:54.360Z,82.54
2023-04-27T06:42:21.323Z,82.57
2023-04-27T06:44:48.359Z,82.80
2023-04-27T06:47:15.363Z,82.76
2023-04-27T06:49:42.304Z,82.49
2023-04-27T06:52:09.206Z,82.28
2023-04-27T06:54:36.336Z,82.20
2023-04-27T06:57:03.495Z,82.42
2023-04-27T06:59:30.495Z,82.64
2023-04-27T07:01:57.614Z,82.72
2023-04-27T07:04:24.836Z,82.54
2023-04-27T07:06:51.929Z,82.56
2023-04-27T07:09:27.059Z,82.89
2023-04-27T07:11:55.485Z,83.03
2023-04-27T07:14:22.547Z,82.87
2023-04-27T07:16:49.482Z,82.82
2023-04-27T07:19:16.971Z,82.92
2023-04-27T07:21:43.986Z,83.22
2023-04-27T07:24:11.248Z,83.26
2023-04-27T07:26:38.193Z,83.21
2023-04-27T07:29:14.456Z,83.30
2023-04-27T07:31:53.093Z,83.51
2023-04-27T07:34:20.518Z,83.63
2023-04-27T07:36:47.659Z,83.53
2023-04-27T07:39:15.248Z,83.41
2023-04-27T07:41:42.462Z,83.14
2023-04-27T07:44:09.477Z,83.12
2023-04-27T07:46:36.562Z,82.93
2023-04-27T07:49:04.032Z,82.99
2023-04-27T07:51:32.156Z,83.28
2023-04-27T07:53:59.253Z,83.40
2023-04-27T07:56:26.435Z,83.35
2023-04-27T07:58:53.428Z,83.49
2023-04-27T08:01:22.136Z,83.51
2023-04-27T08:03:49.319Z,83.45
2023-04-27T08:06:17.162Z,83.36
2023-04-27T08:08:44.485Z,83.59
2023-04-27T08:11:12.333Z,83.67
2023-04-27T08:13:39.402Z,83.76
2023-04-27T08:16:07.198Z,83.46
2023-04-27T08:18:34.652Z,83.48
2023-04-27T08:21:01.660Z,83.49
2023-04-27T08:23:29.646Z,83.68
2023-04-27T08:25:56.676Z,83.37
2023-04-27T08:28:23.898Z,83.38
2023-04-27T08:30:51.979Z,83.59
2023-04-27T08:33:18.949Z,83.65
2023-04-27T08:35:46.016Z,83.68
2023-04-27T08:38:13.064Z,83.59
2023-04-27T08:40:44.111Z,83.62
2023-04-27T08:43:11.371Z,83.62
2023-04-27T08:45:38.418Z,83.96
2023-04-27T08:48:06.391Z,83.79
2023-04-27T08:50:33.431Z,83.73
2023-04-27T08:53:00.768Z,83.71
2023-04-27T08:55:28.257Z,83.76
2023-04-27T08:57:58.753Z,84.01
2023-04-27T09:00:27.932Z,84.20
2023-04-27T09:02:55.289Z,84.00
2023-04-27T09:05:23.809Z,84.00
2023-04-27T09:08:02.441Z,84.05
2023-04-27T09:10:29.818Z,84.44
2023-04-27T09:12:58.126Z,84.56
2023-04-27T09:15:25.252Z,84.77
2023-04-27T09:17:56.756Z,84.76
2023-04-27T09:20:27.042Z,84.71
2023-04-27T09:22:58.800Z,84.48
2023-04-27T09:25:28.202Z,84.57
2023-04-27T09:27:56.293Z,84.43
2023-04-27T09:30:23.438Z,84.72
2023-04-27T09:33:03.993Z,84.90
2023-04-27T09:35:32.901Z,85.05
2023-04-27T09:38:00.923Z,84.73
2023-04-27T09:40:29.884Z,84.48
2023-04-27T09:43:03.791Z,84.04
2023-04-27T09:45:33.830Z,84.03
2023-04-27T09:48:02.369Z,83.86
2023-04-27T09:50:29.381Z,83.89
2023-04-27T09:52:57.342Z,83.87
2023-04-27T09:55:40.710Z,83.92
2023-04-27T09:58:46.521Z,83.87
2023-04-27T10:01:37.291Z,84.08
2023-04-27T10:04:36.594Z,84.00
2023-04-27T10:07:13.099Z,83.65
2023-04-27T10:09:41.866Z,83.59
2023-04-27T10:12:20.045Z,83.34
2023-04-27T10:14:57.192Z,83.54
2023-04-27T10:17:34.676Z,83.50
2023-04-27T10:20:10.889Z,83.38
2023-04-27T10:22:48.052Z,83.46
2023-04-27T10:25:16.741Z,83.33
2023-04-27T10:27:43.842Z,83.37
2023-04-27T10:30:11.853Z,83.41
2023-04-27T10:32:38.877Z,83.23
2023-04-27T10:35:07.690Z,83.26
2023-04-27T10:37:44.095Z,83.18
2023-04-27T10:40:15.138Z,82.94
2023-04-27T10:42:42.296Z,82.71
2023-04-27T10:45:09.713Z,82.73
2023-04-27T10:47:44.329Z,82.74
2023-04-27T10:50:13.702Z,82.72
2023-04-27T10:52:44.367Z,82.81
2023-04-27T10:55:22.280Z,82.90
2023-04-27T10:57:56.098Z,82.74
2023-04-27T11:00:35.296Z,82.50
2023-04-27T11:03:20.695Z,82.59
2023-04-27T11:05:49.307Z,82.57
2023-04-27T11:08:17.444Z,82.64
2023-04-27T11:10:46.630Z,82.66
2023-04-27T11:13:15.331Z,82.70
2023-04-27T11:15:44.990Z,82.73
2023-04-27T11:18:12.356Z,82.92
2023-04-27T11:20:39.384Z,83.19
2023-04-27T11:23:06.386Z,83.45
2023-04-27T11:25:33.347Z,83.36
2023-04-27T11:28:00.429Z,83.52
2023-04-27T11:30:27.406Z,83.57
2023-04-27T11:32:54.731Z,83.87
2023-04-27T11:35:32.711Z,83.69
2023-04-27T11:37:59.774Z,83.61
2023-04-27T11:40:28.765Z,83.78
2023-04-27T11:42:59.685Z,83.37
2023-04-27T11:45:30.141Z,83.52
2023-04-27T11:48:00.994Z,83.51
2023-04-27T11:50:28.042Z,83.91
2023-04-27T11:52:56.081Z,84.21
2023-04-27T11:55:24.834Z,84.30
2023-04-27T11:57:57.285Z,84.38
2023-04-27T12:00:25.036Z,84.35
2023-04-27T12:02:52.189Z,84.43
2023-04-27T12:05:20.604Z,84.14
2023-04-27T12:07:48.177Z,84.07
2023-04-27T12:10:15.244Z,84.38
2023-04-27T12:12:42.541Z,84.22
2023-04-27T12:15:10.374Z,84.56
2023-04-27T12:17:38.967Z,84.85
2023-04-27T12:20:06.516Z,84.82
2023-04-27T12:22:34.027Z,84.71
2023-04-27T12:25:01.827Z,84.58
2023-04-27T12:27:29.063Z,84.44
2023-04-27T12:29:58.959Z,84.21
2023-04-27T12:32:26.157Z,84.06
2023-04-27T12:34:53.817Z,84.09
2023-04-27T12:37:21.791Z,84.08
2023-04-27T12:39:49.899Z,84.04
2023-04-27T12:42:20.023Z,83.95
2023-04-27T12:44:47.639Z,84.03
2023-04-27T12:47:27.798Z,84.01
2023-04-27T12:50:01.516Z,83.76
2023-04-27T12:52:28.963Z,83.53
2023-04-27T12:54:59.400Z,83.44
2023-04-27T12:57:26.923Z,83.61
2023-04-27T12:59:53.852Z,83.64
2023-04-27T13:02:21.149Z,83.44
2023-04-27T13:04:48.711Z,82.77
2023-04-27T13:07:15.853Z,82.66
2023-04-27T13:09:42.854Z,82.81
2023-04-27T13:12:09.917Z,82.85
2023-04-27T13:14:36.946Z,82.91
2023-04-27T13:17:04.462Z,82.78
2023-04-27T13:19:31.817Z,83.00
2023-04-27T13:21:58.777Z,83.10
2023-04-27T13:24:26.090Z,83.15
2023-04-27T13:26:53.040Z,83.10
2023-04-27T13:29:20.079Z,83.10
2023-04-27T13:31:47.121Z,82.69
2023-04-27T13:34:14.836Z,82.79
2023-04-27T13:36:42.049Z,83.18
2023-04-27T13:39:09.018Z,82.87
2023-04-27T13:41:36.275Z,83.21
2023-04-27T13:44:03.525Z,83.34
2023-04-27T13:46:30.895Z,83.55
2023-04-27T13:48:57.953Z,83.65
2023-04-27T13:51:25.379Z,83.83
2023-04-27T13:53:52.343Z,83.62
2023-04-27T13:56:19.325Z,83.42
2023-04-27T13:58:46.617Z,83.11
2023-04-27T14:01:13.682Z,83.17
2023-04-27T14:03:43.308Z,83.21
2023-04-27T14:06:10.852Z,83.23
2023-04-27T14:08:38.011Z,83.33
2023-04-27T14:11:06.751Z,83.53
2023-04-27T14:13:33.684Z,83.58
2023-04-27T14:16:00.708Z,83.62
2023-04-27T14:18:32.437Z,83.70
2023-04-27T14:20:59.910Z,83.60
2023-04-27T14:23:27.352Z,83.60
2023-04-27T14:25:54.304Z,83.87
2023-04-27T14:28:21.613Z,84.00
2023-04-27T14:30:48.594Z,83.91
2023-04-27T14:33:15.738Z,83.79
2023-04-27T14:35:46.301Z,83.73
2023-04-27T14:38:13.361Z,83.70
2023-04-27T14:40:41.282Z,83.67
2023-04-27T14:43:08.299Z,83.49
2023-04-27T14:45:47.773Z,83.28
2023-04-27T14:48:17.592Z,83.37
2023-04-27T14:50:44.700Z,83.30
2023-04-27T14:53:11.688Z,83.27
2023-04-27T14:55:38.693Z,83.42
2023-04-27T14:58:05.762Z,83.41
2023-04-27T15:00:32.728Z,83.36
2023-04-27T15:02:59.847Z,83.06
2023-04-27T15:05:26.800Z,83.14
2023-04-27T15:07:53.824Z,83.30
2023-04-27T15:10:21.054Z,83.28
2023-04-27T15:12:48.037Z,83.41
2023-04-27T15:15:15.138Z,83.39
2023-04-27T15:17:42.140Z,83.46
2023-04-27T15:20:09.308Z,83.80
2023-04-27T15:22:36.534Z,83.57
2023-04-27T15:25:03.875Z,83.38
2023-04-27T15:27:30.943Z,83.10
2023-04-27T15:29:58.290Z,83.22
2023-04-27T15:32:30.177Z,83.01
2023-04-27T15:34:57.813Z,83.00
2023-04-27T15:37:25.829Z,83.04
2023-04-27T15:39:52.722Z,82.95
2023-04-27T15:42:19.759Z,82.70
2023-04-27T15:44:54.269Z,82.77
2023-04-27T15:47:21.843Z,82.53
2023-04-27T15:49:57.004Z,82.25
2023-04-27T15:52:25.812Z,82.24
2023-04-27T15:54:52.719Z,82.08
2023-04-27T15:57:19.689Z,81.77
2023-04-27T15:59:46.779Z,82.05
2023-04-27T16:02:13.868Z,81.85
2023-04-27T16:04:40.961Z,81.50
2023-04-27T16:07:08.485Z,81.51
2023-04-27T16:09:35.558Z,81.56
2023-04-27T16:12:04.021Z,81.45
2023-04-27T16:14:31.120Z,81.37
2023-04-27T16:17:02.167Z,81.22
2023-04-27T16:19:29.230Z,81.12
2023-04-27T16:21:56.477Z,80.95
2023-04-27T16:24:25.173Z,80.79
2023-04-27T16:26:52.159Z,80.56
2023-04-27T16:29:19.193Z,80.46
2023-04-27T16:31:49.946Z,80.08
2023-04-27T16:34:16.917Z,80.14
2023-04-27T16:36:44.847Z,80.22
2023-04-27T16:39:14.227Z,80.08
2023-04-27T16:41:41.508Z,80.14
2023-04-27T16:44:08.950Z,80.41
2023-04-27T16:46:36.178Z,80.44
2023-04-27T16:49:03.916Z,80.46
2023-04-27T16:51:31.224Z,80.43
2023-04-27T16:54:01.107Z,80.39
2023-04-27T16:56:29.864Z,80.15
2023-04-27T16:58:56.945Z,80.22
2023-04-27T17:01:27.307Z,80.14
2023-04-27T17:03:54.427Z,80.25
2023-04-27T17:06:21.590Z,80.32
2023-04-27T17:08:48.509Z,80.29
2023-04-27T17:11:15.621Z,80.27
2023-04-27T17:13:42.581Z,80.27
2023-04-27T17:16:13.495Z,80.30
2023-04-27T17:18:42.960Z,80.29
2023-04-27T17:21:10.818Z,80.31
2023-04-27T17:23:38.074Z,80.34
2023-04-27T17:26:05.197Z,80.20
2023-04-27T17:28:32.386Z,80.43
2023-04-27T17:31:00.379Z,80.69
2023-04-27T17:33:27.401Z,80.62
2023-04-27T17:35:54.378Z,80.53
2023-04-27T17:38:21.502Z,80.55
2023-04-27T17:40:49.029Z,80.35
2023-04-27T17:43:16.079Z,80.30
2023-04-27T17:45:43.129Z,80.49
2023-04-27T17:48:10.951Z,80.43
2023-04-27T17:50:38.128Z,80.09
2023-04-27T17:53:06.008Z,80.16
2023-04-27T17:55:33.383Z,79.88
2023-04-27T17:58:00.546Z,79.93
2023-04-27T18:00:27.711Z,79.29
2023-04-27T18:02:55.131Z,79.42
2023-04-27T18:05:22.281Z,79.10
2023-04-27T18:07:50.234Z,79.20
2023-04-27T18:10:17.320Z,79.09
2023-04-27T18:12:44.290Z,78.79
2023-04-27T18:15:11.542Z,78.74
2023-04-27T18:17:38.751Z,78.86
2023-04-27T18:20:09.899Z,78.88
2023-04-27T18:22:40.256Z,78.43
2023-04-27T18:25:09.982Z,78.28
2023-04-27T18:27:37.883Z,78.39
2023-04-27T18:30:06.359Z,78.27
2023-04-27T18:32:34.158Z,78.06
2023-04-27T18:35:01.290Z,78.24
2023-04-27T18:37:28.386Z,78.06
2023-04-27T18:39:55.844Z,78.15
2023-04-27T18:42:23.604Z,77.94
2023-04-27T18:44:59.937Z,77.40
2023-04-27T18:47:27.837Z,77.47
2023-04-27T18:49:55.045Z,77.24
2023-04-27T18:52:22.115Z,77.22
2023-04-27T18:54:49.165Z,77.15
2023-04-27T18:57:17.376Z,77.19
2023-04-27T18:59:44.462Z,77.15
2023-04-27T19:02:11.529Z,77.06
2023-04-27T19:04:39.682Z,76.92
2023-04-27T19:07:08.099Z,76.65
2023-04-27T19:09:35.442Z,76.76
2023-04-27T19:12:03.752Z,76.49
2023-04-27T19:14:31.908Z,76.41
2023-04-27T19:16:59.074Z,76.44
2023-04-27T19:19:26.889Z,76.52
2023-04-27T19:21:58.556Z,76.26
2023-04-27T19:24:26.247Z,76.05
2023-04-27T19:26:53.249Z,75.99
2023-04-27T19:29:23.137Z,75.79
2023-04-27T19:31:50.062Z,75.68
2023-04-27T19:34:17.082Z,75.68
2023-04-27T19:36:44.016Z,75.61
2023-04-27T19:39:13.557Z,75.46
2023-04-27T19:41:40.886Z,75.50
2023-04-27T19:44:07.808Z,75.41
2023-04-27T19:46:34.841Z,75.20
2023-04-27T19:49:02.144Z,75.16
2023-04-27T19:51:29.649Z,75.06
2023-04-27T19:53:56.772Z,75.14
2023-04-27T19:56:23.953Z,75.19
2023-04-27T19:58:51.173Z,74.96
2023-04-27T20:01:18.302Z,74.92
2023-04-27T20:03:45.561Z,74.92
2023-04-27T20:06:12.780Z,74.88
2023-04-27T20:08:39.831Z,74.69
2023-04-27T20:11:06.792Z,74.83
2023-04-27T20:13:33.735Z,74.78
2023-04-27T20:16:00.716Z,74.47
2023-04-27T20:18:31.732Z,74.47
2023-04-27T20:21:02.142Z,74.53
2023-04-27T20:23:29.405Z,74.46
2023-04-27T20:25:56.764Z,74.65
2023-04-27T20:28:23.708Z,74.80
2023-04-27T20:30:50.761Z,74.90
2023-04-27T20:33:17.877Z,74.92
2023-04-27T20:35:47.395Z,74.90
2023-04-27T20:38:14.379Z,74.99
2023-04-27T20:40:42.283Z,75.15
2023-04-27T20:43:09.728Z,75.32
2023-04-27T20:45:36.730Z,75.19
2023-04-27T20:48:04.039Z,75.47
2023-04-27T20:50:31.199Z,75.67
2023-04-27T20:52:58.176Z,75.58
2023-04-27T20:55:25.193Z,75.79
2023-04-27T20:57:52.214Z,75.92
2023-04-27T21:00:19.413Z,75.77
2023-04-27T21:02:48.291Z,75.76
2023-04-27T21:05:16.363Z,75.73
2023-04-27T21:07:43.306Z,75.66
2023-04-27T21:10:12.843Z,75.58
2023-04-27T21:12:39.867Z,75.58
2023-04-27T21:15:13.071Z,75.55
2023-04-27T21:17:40.079Z,75.48
2023-04-27T21:20:10.035Z,75.63
2023-04-27T21:22:37.539Z,75.78
2023-04-27T21:25:04.819Z,75.88
2023-04-27T21:27:31.885Z,75.96
2023-04-27T21:29:58.862Z,75.90
2023-04-27T21:32:26.033Z,76.00
2023-04-27T21:34:53.070Z,76.09
2023-04-27T21:37:20.032Z,76.18
2023-04-27T21:39:46.992Z,76.29
2023-04-27T21:42:13.985Z,76.25
2023-04-27T21:44:41.326Z,76.37
2023-04-27T21:47:08.313Z,76.25
2023-04-27T21:49:35.408Z,76.48
2023-04-27T21:52:02.395Z,76.42
2023-04-27T21:54:29.382Z,76.37
2023-04-27T21:56:56.315Z,76.26
2023-04-27T21:59:23.281Z,76.20
2023-04-27T22:01:50.628Z,76.31
2023-04-27T22:04:18.100Z,76.34
2023-04-27T22:06:45.556Z,76.17
2023-04-27T22:09:12.620Z,76.12
2023-04-27T22:11:39.725Z,76.20
2023-04-27T22:14:06.692Z,76.24
2023-04-27T22:16:33.628Z,76.20
2023-04-27T22:19:00.607Z,76.08
2023-04-27T22:21:29.001Z,75.95
2023-04-27T22:23:55.959Z,76.17
2023-04-27T22:26:29.730Z,76.23
2023-04-27T22:28:56.704Z,76.06
2023-04-27T22:31:23.765Z,76.08
2023-04-27T22:33:51.350Z,76.10
2023-04-27T22:36:18.348Z,76.12
2023-04-27T22:38:45.268Z,76.09
2023-04-27T22:41:12.533Z,76.14
2023-04-27T22:43:39.533Z,76.06
2023-04-27T22:46:06.548Z,76.17
2023-04-27T22:48:33.636Z,76.11
2023-04-27T22:51:00.600Z,75.90
2023-04-27T22:53:27.557Z,75.67
2023-04-27T22:55:54.594Z,75.63
2023-04-27T22:58:21.967Z,75.57
2023-04-27T23:00:48.962Z,75.50
2023-04-27T23:03:16.128Z,75.33
2023-04-27T23:05:43.551Z,75.13
2023-04-27T23:08:10.536Z,75.04
2023-04-27T23:10:38.988Z,74.78
2023-04-27T23:13:07.431Z,74.83
2023-04-27T23:15:34.383Z,74.54
2023-04-27T23:18:01.482Z,74.48
2023-04-27T23:20:29.339Z,74.41
2023-04-27T23:22:56.761Z,74.54
2023-04-27T23:25:23.825Z,74.48
2023-04-27T23:27:52.137Z,74.43
2023-04-27T23:30:21.489Z,74.41
2023-04-27T23:32:48.552Z,74.43
2023-04-27T23:35:15.753Z,74.34
2023-04-27T23:37:43.013Z,74.09
2023-04-27T23:40:10.222Z,74.11
2023-04-27T23:42:37.129Z,74.03
2023-04-27T23:45:05.196Z,73.68
2023-04-27T23:47:34.108Z,73.21
2023-04-27T23:50:02.468Z,73.32
2023-04-27T23:52:29.562Z,73.09
2023-04-27T23:54:57.888Z,73.21
2023-04-27T23:57:24.817Z,72.95
2023-04-27T23:59:51.750Z,72.88
